Pagrindinis puslapis
METAR-TAF:

METAR-TAF

Oro uostai :

Rio Brankas, Akrė, Brazilija

platuma: 10-00S, ilguma: 067-48W, Aukštis: 142 m

Dabartinis oras

Ataskaita buvo paskelbta 41 minutes, ne 01:00 UTC
Vėjas 1 kt iš Pietų/Pietryčių
Temperatūra 22°C
Drėgmė 100%
Slėgis 1014 hPa
Matomumas 10 km arba daugiau
nėra debesų žemiau 1500 m ir nėra kamuolinių lietaus debesų

METAR: SBRB 170100Z 15001KT CAVOK 22/22 Q1014

Laikas: 20:41 (01:41 UTC)

Prognozė

Ataskaita buvo paskelbta 4 valandos ir 41 minutes, ne 21:00 UTC
Prognozė galioja nuo 17 metu 00 UTC su 17 metu 12 UTC
Vėjas 5 kt iš Vakarų
Matomumas 10 km arba daugiau
Mažai debesys ne aukštis 1500 ft
Tapsmas
nuo 17 metu 09 UTC su 17 metu 11 UTC
Vėjas 5 kt iš Pietų

TAF: SBRB 162100Z 1700/1712 28005KT 9999 FEW015 TN20/1706Z TX22/1712Z BECMG 1709/1711 18005KT RMK PHD

Orai ataskaitas ir orų prognozės (METAR, TAF).

turimą stotys yra geltonos ir raudonos taškus žemėlapyje.

Perkelti pele per norėdami pamatyti stoties vardą.

Tada spustelėkite, norėdami matyti oro stebėjimo ir prognozės.

Norėdami pakeisti žemėlapį: spustelėkite ant žalios mygtukų su juodo kryžiaus žemyn,; žalią mygtuką su brūkšneliu, jei norite nutolinti; arba žalių rodyklių gretimoms žemėlapius.


METAR-TAF: